Minden, Nevada
Current Conditions -  °F | °C
As of 1:53 PM on Wednesday 28 Jan 2015 (Local Time) from KTVL Reporting Station
Clear Clear  
Wind Chill: 50°   Ceiling: Unl
Heat Index: 50°   Visibility: 10mi
Dew Point: 28°   Wind: 3mph
Humidity: 43%   Direction: NA
Pressure: 30.25"   Gusts: NA
Location:  38.95°N, 119.77°W
Report Text: KTVL 282153Z AUTO VRB03KT 10SM CLR 10/M02 A3025 RMK AO2 SLP231 T01001022
Loading
Personal Weather Stations






























Interactive Weather Map New forecast layout! Learn more

10-Day Weather Forecast

Advertisements
Track Severe Weather on mobile